sensor_id;sensor_type;location;lat;lon;timestamp;pressure;altitude;pressure_sealevel;temperature
68454;BMP280;55436;39.536;2.718;2022-07-12T00:00:52;101466.19;;;25.98
68454;BMP280;55436;39.536;2.718;2022-07-12T00:03:18;101473.22;;;25.90
68454;BMP280;55436;39.536;2.718;2022-07-12T00:05:44;101470.31;;;25.84
68454;BMP280;55436;39.536;2.718;2022-07-12T00:08:09;101478.00;;;25.98
68454;BMP280;55436;39.536;2.718;2022-07-12T00:10:35;101476.28;;;25.83
68454;BMP280;55436;39.536;2.718;2022-07-12T00:13:01;101473.91;;;25.63
68454;BMP280;55436;39.536;2.718;2022-07-12T00:15:27;101466.84;;;25.62
68454;BMP280;55436;39.536;2.718;2022-07-12T00:17:53;101462.22;;;25.90
68454;BMP280;55436;39.536;2.718;2022-07-12T00:20:18;101465.91;;;26.14
68454;BMP280;55436;39.536;2.718;2022-07-12T00:22:44;101465.47;;;26.15
68454;BMP280;55436;39.536;2.718;2022-07-12T00:25:12;101471.47;;;25.65
68454;BMP280;55436;39.536;2.718;2022-07-12T00:27:37;101465.28;;;25.22
68454;BMP280;55436;39.536;2.718;2022-07-12T00:30:05;101469.91;;;25.25
68454;BMP280;55436;39.536;2.718;2022-07-12T00:32:31;101468.13;;;25.31
68454;BMP280;55436;39.536;2.718;2022-07-12T00:34:56;101467.69;;;25.42
68454;BMP280;55436;39.536;2.718;2022-07-12T00:37:22;101461.75;;;24.91
68454;BMP280;55436;39.536;2.718;2022-07-12T00:39:47;101469.16;;;24.82
68454;BMP280;55436;39.536;2.718;2022-07-12T00:42:13;101468.50;;;24.99
68454;BMP280;55436;39.536;2.718;2022-07-12T00:44:38;101469.16;;;25.03
68454;BMP280;55436;39.536;2.718;2022-07-12T00:47:05;101471.47;;;25.35
68454;BMP280;55436;39.536;2.718;2022-07-12T00:49:31;101483.63;;;25.47
68454;BMP280;55436;39.536;2.718;2022-07-12T00:51:56;101471.06;;;25.46
68454;BMP280;55436;39.536;2.718;2022-07-12T00:54:22;101479.94;;;25.50
68454;BMP280;55436;39.536;2.718;2022-07-12T00:56:48;101473.44;;;25.65
68454;BMP280;55436;39.536;2.718;2022-07-12T00:59:14;101472.50;;;25.59
68454;BMP280;55436;39.536;2.718;2022-07-12T01:01:41;101473.19;;;25.72
68454;BMP280;55436;39.536;2.718;2022-07-12T01:04:07;101480.19;;;25.64
68454;BMP280;55436;39.536;2.718;2022-07-12T01:06:33;101480.88;;;25.47
68454;BMP280;55436;39.536;2.718;2022-07-12T01:08:59;101474.09;;;25.39
68454;BMP280;55436;39.536;2.718;2022-07-12T01:11:25;101476.97;;;25.05
68454;BMP280;55436;39.536;2.718;2022-07-12T01:13:54;101468.06;;;25.01
68454;BMP280;55436;39.536;2.718;2022-07-12T01:16:20;101471.72;;;24.98
68454;BMP280;55436;39.536;2.718;2022-07-12T01:18:46;101466.06;;;24.80
68454;BMP280;55436;39.536;2.718;2022-07-12T01:21:18;101467.34;;;24.66
68454;BMP280;55436;39.536;2.718;2022-07-12T01:23:45;101470.81;;;24.58
68454;BMP280;55436;39.536;2.718;2022-07-12T01:26:11;101470.63;;;24.40
68454;BMP280;55436;39.536;2.718;2022-07-12T01:28:37;101464.97;;;24.22
68454;BMP280;55436;39.536;2.718;2022-07-12T01:31:03;101464.09;;;24.00
68454;BMP280;55436;39.536;2.718;2022-07-12T01:33:29;101468.84;;;24.00
68454;BMP280;55436;39.536;2.718;2022-07-12T01:35:56;101471.28;;;23.85
68454;BMP280;55436;39.536;2.718;2022-07-12T01:38:22;101468.09;;;23.99
68454;BMP280;55436;39.536;2.718;2022-07-12T01:40:48;101477.81;;;24.13
68454;BMP280;55436;39.536;2.718;2022-07-12T01:43:14;101469.78;;;24.18
68454;BMP280;55436;39.536;2.718;2022-07-12T01:45:39;101471.84;;;24.39
68454;BMP280;55436;39.536;2.718;2022-07-12T01:48:06;101476.22;;;24.49
68454;BMP280;55436;39.536;2.718;2022-07-12T01:50:32;101472.00;;;24.57
68454;BMP280;55436;39.536;2.718;2022-07-12T01:52:58;101473.84;;;24.60
68454;BMP280;55436;39.536;2.718;2022-07-12T01:55:24;101480.31;;;24.32
68454;BMP280;55436;39.536;2.718;2022-07-12T01:57:50;101477.34;;;24.27
68454;BMP280;55436;39.536;2.718;2022-07-12T02:00:16;101488.72;;;24.16
68454;BMP280;55436;39.536;2.718;2022-07-12T02:02:45;101484.59;;;24.33
68454;BMP280;55436;39.536;2.718;2022-07-12T02:05:11;101493.75;;;24.64
68454;BMP280;55436;39.536;2.718;2022-07-12T02:07:36;101490.13;;;24.67
68454;BMP280;55436;39.536;2.718;2022-07-12T02:10:05;101484.38;;;24.74
68454;BMP280;55436;39.536;2.718;2022-07-12T02:12:31;101479.25;;;24.85
68454;BMP280;55436;39.536;2.718;2022-07-12T02:14:56;101480.88;;;24.95
68454;BMP280;55436;39.536;2.718;2022-07-12T02:17:22;101484.22;;;24.99
68454;BMP280;55436;39.536;2.718;2022-07-12T02:19:47;101495.75;;;24.85
68454;BMP280;55436;39.536;2.718;2022-07-12T02:22:13;101493.44;;;24.50
68454;BMP280;55436;39.536;2.718;2022-07-12T02:24:39;101493.28;;;24.32
68454;BMP280;55436;39.536;2.718;2022-07-12T02:27:05;101499.94;;;24.56
68454;BMP280;55436;39.536;2.718;2022-07-12T02:29:30;101493.16;;;24.48
68454;BMP280;55436;39.536;2.718;2022-07-12T02:31:56;101490.41;;;24.35
68454;BMP280;55436;39.536;2.718;2022-07-12T02:34:21;101496.50;;;24.05
68454;BMP280;55436;39.536;2.718;2022-07-12T02:36:47;101494.97;;;23.92
68454;BMP280;55436;39.536;2.718;2022-07-12T02:39:12;101495.53;;;23.99
68454;BMP280;55436;39.536;2.718;2022-07-12T02:41:38;101488.59;;;24.20
68454;BMP280;55436;39.536;2.718;2022-07-12T02:44:03;101492.78;;;23.87
68454;BMP280;55436;39.536;2.718;2022-07-12T02:46:29;101495.84;;;23.76
68454;BMP280;55436;39.536;2.718;2022-07-12T02:48:54;101498.81;;;23.70
68454;BMP280;55436;39.536;2.718;2022-07-12T02:51:20;101491.78;;;23.69
68454;BMP280;55436;39.536;2.718;2022-07-12T02:53:45;101487.06;;;23.81
68454;BMP280;55436;39.536;2.718;2022-07-12T02:56:11;101496.63;;;23.89
68454;BMP280;55436;39.536;2.718;2022-07-12T02:58:37;101504.06;;;23.76
68454;BMP280;55436;39.536;2.718;2022-07-12T03:01:03;101494.06;;;23.45
68454;BMP280;55436;39.536;2.718;2022-07-12T03:03:28;101503.00;;;23.33
68454;BMP280;55436;39.536;2.718;2022-07-12T03:05:54;101493.50;;;23.09
68454;BMP280;55436;39.536;2.718;2022-07-12T03:08:21;101494.09;;;23.17
68454;BMP280;55436;39.536;2.718;2022-07-12T03:10:46;101493.91;;;23.24
68454;BMP280;55436;39.536;2.718;2022-07-12T03:13:12;101488.59;;;23.17
68454;BMP280;55436;39.536;2.718;2022-07-12T03:15:37;101489.00;;;23.03
68454;BMP280;55436;39.536;2.718;2022-07-12T03:18:03;101494.97;;;23.14
68454;BMP280;55436;39.536;2.718;2022-07-12T03:20:30;101488.72;;;23.13
68454;BMP280;55436;39.536;2.718;2022-07-12T03:22:55;101491.59;;;22.94
68454;BMP280;55436;39.536;2.718;2022-07-12T03:25:21;101492.56;;;22.72
68454;BMP280;55436;39.536;2.718;2022-07-12T03:27:47;101496.31;;;22.49
68454;BMP280;55436;39.536;2.718;2022-07-12T03:30:14;101494.41;;;22.46
68454;BMP280;55436;39.536;2.718;2022-07-12T03:32:40;101494.59;;;22.39
68454;BMP280;55436;39.536;2.718;2022-07-12T03:35:06;101499.06;;;22.33
68454;BMP280;55436;39.536;2.718;2022-07-12T03:37:41;101495.63;;;22.29
68454;BMP280;55436;39.536;2.718;2022-07-12T03:40:07;101492.69;;;22.20
68454;BMP280;55436;39.536;2.718;2022-07-12T03:42:33;101494.34;;;22.18
68454;BMP280;55436;39.536;2.718;2022-07-12T03:45:00;101491.50;;;22.21
68454;BMP280;55436;39.536;2.718;2022-07-12T03:47:25;101492.19;;;22.41
68454;BMP280;55436;39.536;2.718;2022-07-12T03:49:51;101493.47;;;22.53
68454;BMP280;55436;39.536;2.718;2022-07-12T03:52:17;101500.41;;;22.57
68454;BMP280;55436;39.536;2.718;2022-07-12T03:54:42;101494.91;;;22.73
68454;BMP280;55436;39.536;2.718;2022-07-12T03:57:08;101494.84;;;22.89
68454;BMP280;55436;39.536;2.718;2022-07-12T03:59:44;101499.38;;;22.95
68454;BMP280;55436;39.536;2.718;2022-07-12T04:02:11;101490.00;;;22.96
68454;BMP280;55436;39.536;2.718;2022-07-12T04:04:37;101489.91;;;22.84
68454;BMP280;55436;39.536;2.718;2022-07-12T04:07:03;101487.84;;;22.88
68454;BMP280;55436;39.536;2.718;2022-07-12T04:09:28;101482.75;;;22.74
68454;BMP280;55436;39.536;2.718;2022-07-12T04:11:54;101495.31;;;22.72
68454;BMP280;55436;39.536;2.718;2022-07-12T04:14:20;101501.56;;;22.72
68454;BMP280;55436;39.536;2.718;2022-07-12T04:16:45;101505.47;;;22.87
68454;BMP280;55436;39.536;2.718;2022-07-12T04:19:11;101502.56;;;22.94
68454;BMP280;55436;39.536;2.718;2022-07-12T04:21:37;101509.38;;;23.02
68454;BMP280;55436;39.536;2.718;2022-07-12T04:24:04;101508.41;;;23.08
68454;BMP280;55436;39.536;2.718;2022-07-12T04:26:30;101514.75;;;22.77
68454;BMP280;55436;39.536;2.718;2022-07-12T04:28:56;101509.97;;;22.65
68454;BMP280;55436;39.536;2.718;2022-07-12T04:31:23;101514.44;;;22.59
68454;BMP280;55436;39.536;2.718;2022-07-12T04:33:49;101509.22;;;22.49
68454;BMP280;55436;39.536;2.718;2022-07-12T04:36:14;101508.28;;;22.39
68454;BMP280;55436;39.536;2.718;2022-07-12T04:38:40;101509.31;;;22.29
68454;BMP280;55436;39.536;2.718;2022-07-12T04:41:05;101516.44;;;22.27
68454;BMP280;55436;39.536;2.718;2022-07-12T04:43:31;101513.75;;;22.39
68454;BMP280;55436;39.536;2.718;2022-07-12T04:46:05;101515.09;;;22.31
68454;BMP280;55436;39.536;2.718;2022-07-12T04:48:30;101518.88;;;22.69
68454;BMP280;55436;39.536;2.718;2022-07-12T04:50:56;101517.97;;;23.04
68454;BMP280;55436;39.536;2.718;2022-07-12T04:53:21;101528.19;;;23.44
68454;BMP280;55436;39.536;2.718;2022-07-12T04:55:47;101523.28;;;23.76
68454;BMP280;55436;39.536;2.718;2022-07-12T04:58:13;101521.75;;;24.13
68454;BMP280;55436;39.536;2.718;2022-07-12T05:00:38;101520.50;;;24.39
68454;BMP280;55436;39.536;2.718;2022-07-12T05:03:04;101528.75;;;24.51
68454;BMP280;55436;39.536;2.718;2022-07-12T05:05:29;101520.78;;;24.65
68454;BMP280;55436;39.536;2.718;2022-07-12T05:07:55;101517.59;;;24.67
68454;BMP280;55436;39.536;2.718;2022-07-12T05:10:20;101527.84;;;24.88
68454;BMP280;55436;39.536;2.718;2022-07-12T05:12:46;101526.81;;;24.73
68454;BMP280;55436;39.536;2.718;2022-07-12T05:15:11;101525.13;;;24.54
68454;BMP280;55436;39.536;2.718;2022-07-12T05:17:37;101526.72;;;24.64
68454;BMP280;55436;39.536;2.718;2022-07-12T05:20:03;101524.25;;;24.78
68454;BMP280;55436;39.536;2.718;2022-07-12T05:22:28;101527.25;;;24.93
68454;BMP280;55436;39.536;2.718;2022-07-12T05:24:54;101513.66;;;25.11
68454;BMP280;55436;39.536;2.718;2022-07-12T05:27:19;101514.81;;;25.52
68454;BMP280;55436;39.536;2.718;2022-07-12T05:29:45;101509.78;;;25.90
68454;BMP280;55436;39.536;2.718;2022-07-12T05:32:10;101512.31;;;26.33
68454;BMP280;55436;39.536;2.718;2022-07-12T05:34:37;101507.25;;;26.23
68454;BMP280;55436;39.536;2.718;2022-07-12T05:37:03;101511.56;;;26.33
68454;BMP280;55436;39.536;2.718;2022-07-12T05:39:29;101509.88;;;26.80
68454;BMP280;55436;39.536;2.718;2022-07-12T05:41:55;101515.22;;;27.01
68454;BMP280;55436;39.536;2.718;2022-07-12T05:44:21;101520.31;;;26.94
68454;BMP280;55436;39.536;2.718;2022-07-12T05:46:48;101512.50;;;26.74
68454;BMP280;55436;39.536;2.718;2022-07-12T05:49:13;101510.06;;;26.58
68454;BMP280;55436;39.536;2.718;2022-07-12T05:51:39;101518.28;;;26.32
68454;BMP280;55436;39.536;2.718;2022-07-12T05:54:23;101509.16;;;25.86
68454;BMP280;55436;39.536;2.718;2022-07-12T05:56:49;101501.09;;;26.01
68454;BMP280;55436;39.536;2.718;2022-07-12T05:59:19;101512.72;;;25.96
68454;BMP280;55436;39.536;2.718;2022-07-12T06:01:45;101504.91;;;26.03
68454;BMP280;55436;39.536;2.718;2022-07-12T06:04:10;101511.25;;;26.39
68454;BMP280;55436;39.536;2.718;2022-07-12T06:06:36;101515.72;;;26.37
68454;BMP280;55436;39.536;2.718;2022-07-12T06:09:03;101523.38;;;26.78
68454;BMP280;55436;39.536;2.718;2022-07-12T06:11:29;101525.53;;;26.74
68454;BMP280;55436;39.536;2.718;2022-07-12T06:13:54;101527.31;;;27.04
68454;BMP280;55436;39.536;2.718;2022-07-12T06:16:20;101529.78;;;27.02
68454;BMP280;55436;39.536;2.718;2022-07-12T06:18:45;101522.16;;;26.61
68454;BMP280;55436;39.536;2.718;2022-07-12T06:21:11;101523.56;;;26.65
68454;BMP280;55436;39.536;2.718;2022-07-12T06:23:36;101519.06;;;26.86
68454;BMP280;55436;39.536;2.718;2022-07-12T06:26:02;101519.38;;;26.88
68454;BMP280;55436;39.536;2.718;2022-07-12T06:28:27;101527.47;;;27.18
68454;BMP280;55436;39.536;2.718;2022-07-12T06:30:53;101525.47;;;27.10
68454;BMP280;55436;39.536;2.718;2022-07-12T06:33:18;101528.13;;;27.45
68454;BMP280;55436;39.536;2.718;2022-07-12T06:35:44;101531.63;;;27.87
68454;BMP280;55436;39.536;2.718;2022-07-12T06:38:10;101535.34;;;28.31
68454;BMP280;55436;39.536;2.718;2022-07-12T06:40:35;101527.09;;;28.45
68454;BMP280;55436;39.536;2.718;2022-07-12T06:43:01;101535.94;;;28.87
68454;BMP280;55436;39.536;2.718;2022-07-12T06:45:26;101534.78;;;29.08
68454;BMP280;55436;39.536;2.718;2022-07-12T06:47:53;101540.41;;;29.13
68454;BMP280;55436;39.536;2.718;2022-07-12T06:50:18;101537.91;;;29.30
68454;BMP280;55436;39.536;2.718;2022-07-12T06:52:44;101548.97;;;29.78
68454;BMP280;55436;39.536;2.718;2022-07-12T06:55:09;101539.22;;;29.83
68454;BMP280;55436;39.536;2.718;2022-07-12T06:57:35;101541.94;;;29.97
68454;BMP280;55436;39.536;2.718;2022-07-12T07:00:03;101540.81;;;29.89
68454;BMP280;55436;39.536;2.718;2022-07-12T07:02:30;101539.75;;;30.27
68454;BMP280;55436;39.536;2.718;2022-07-12T07:04:55;101543.25;;;30.47
68454;BMP280;55436;39.536;2.718;2022-07-12T07:07:21;101544.44;;;30.35
68454;BMP280;55436;39.536;2.718;2022-07-12T07:09:46;101546.09;;;30.52
68454;BMP280;55436;39.536;2.718;2022-07-12T07:12:12;101552.88;;;30.71
68454;BMP280;55436;39.536;2.718;2022-07-12T07:14:38;101551.09;;;30.99
68454;BMP280;55436;39.536;2.718;2022-07-12T07:17:04;101549.25;;;31.16
68454;BMP280;55436;39.536;2.718;2022-07-12T07:19:29;101549.97;;;31.11
68454;BMP280;55436;39.536;2.718;2022-07-12T07:21:55;101550.94;;;31.08
68454;BMP280;55436;39.536;2.718;2022-07-12T07:24:22;101546.63;;;31.07
68454;BMP280;55436;39.536;2.718;2022-07-12T07:26:48;101554.88;;;31.27
68454;BMP280;55436;39.536;2.718;2022-07-12T07:29:15;101552.25;;;31.49
68454;BMP280;55436;39.536;2.718;2022-07-12T07:31:59;101548.63;;;31.79
68454;BMP280;55436;39.536;2.718;2022-07-12T07:34:25;101554.56;;;32.08
68454;BMP280;55436;39.536;2.718;2022-07-12T07:36:51;101560.91;;;32.20
68454;BMP280;55436;39.536;2.718;2022-07-12T07:39:17;101553.41;;;31.78
68454;BMP280;55436;39.536;2.718;2022-07-12T07:41:42;101555.34;;;32.09
68454;BMP280;55436;39.536;2.718;2022-07-12T07:44:08;101555.38;;;32.25
68454;BMP280;55436;39.536;2.718;2022-07-12T07:46:34;101555.44;;;32.47
68454;BMP280;55436;39.536;2.718;2022-07-12T07:48:59;101561.50;;;32.51
68454;BMP280;55436;39.536;2.718;2022-07-12T07:51:25;101567.28;;;32.26
68454;BMP280;55436;39.536;2.718;2022-07-12T07:53:50;101565.28;;;32.48
68454;BMP280;55436;39.536;2.718;2022-07-12T07:56:16;101573.44;;;33.11
68454;BMP280;55436;39.536;2.718;2022-07-12T07:58:41;101568.13;;;32.92
68454;BMP280;55436;39.536;2.718;2022-07-12T08:01:07;101571.38;;;33.39
68454;BMP280;55436;39.536;2.718;2022-07-12T08:03:33;101576.38;;;33.57
68454;BMP280;55436;39.536;2.718;2022-07-12T08:05:58;101577.31;;;33.76
68454;BMP280;55436;39.536;2.718;2022-07-12T08:08:26;101572.13;;;33.45
68454;BMP280;55436;39.536;2.718;2022-07-12T08:10:54;101574.22;;;33.96
68454;BMP280;55436;39.536;2.718;2022-07-12T08:13:19;101577.53;;;33.89
68454;BMP280;55436;39.536;2.718;2022-07-12T08:15:45;101577.06;;;34.31
68454;BMP280;55436;39.536;2.718;2022-07-12T08:18:13;101568.38;;;34.39
68454;BMP280;55436;39.536;2.718;2022-07-12T08:20:38;101565.81;;;34.41
68454;BMP280;55436;39.536;2.718;2022-07-12T08:23:04;101567.88;;;33.90
68454;BMP280;55436;39.536;2.718;2022-07-12T08:25:29;101570.44;;;33.88
68454;BMP280;55436;39.536;2.718;2022-07-12T08:27:55;101568.38;;;33.94
68454;BMP280;55436;39.536;2.718;2022-07-12T08:30:22;101570.81;;;34.14
68454;BMP280;55436;39.536;2.718;2022-07-12T08:32:48;101570.81;;;34.14
68454;BMP280;55436;39.536;2.718;2022-07-12T08:35:15;101569.66;;;33.93
68454;BMP280;55436;39.536;2.718;2022-07-12T08:37:41;101570.88;;;34.03
68454;BMP280;55436;39.536;2.718;2022-07-12T08:40:07;101578.19;;;34.17
68454;BMP280;55436;39.536;2.718;2022-07-12T08:42:35;101569.09;;;34.45
68454;BMP280;55436;39.536;2.718;2022-07-12T08:45:01;101571.00;;;34.91
68454;BMP280;55436;39.536;2.718;2022-07-12T08:47:27;101579.88;;;34.65
68454;BMP280;55436;39.536;2.718;2022-07-12T08:50:22;101566.38;;;34.69
68454;BMP280;55436;39.536;2.718;2022-07-12T08:52:53;101575.81;;;34.66
68454;BMP280;55436;39.536;2.718;2022-07-12T08:57:45;101578.66;;;34.55
68454;BMP280;55436;39.536;2.718;2022-07-12T09:00:11;101581.66;;;34.92
68454;BMP280;55436;39.536;2.718;2022-07-12T09:02:57;101575.84;;;34.61
68454;BMP280;55436;39.536;2.718;2022-07-12T09:05:30;101580.13;;;34.33
68454;BMP280;55436;39.536;2.718;2022-07-12T09:08:09;101576.81;;;34.98
68454;BMP280;55436;39.536;2.718;2022-07-12T09:13:19;101582.72;;;35.61
68454;BMP280;55436;39.536;2.718;2022-07-12T09:15:45;101582.69;;;35.42
68454;BMP280;55436;39.536;2.718;2022-07-12T09:18:15;101579.13;;;35.42
68454;BMP280;55436;39.536;2.718;2022-07-12T09:20:50;101584.53;;;35.10
68454;BMP280;55436;39.536;2.718;2022-07-12T09:23:16;101585.41;;;35.00
68454;BMP280;55436;39.536;2.718;2022-07-12T09:25:47;101585.28;;;35.11
68454;BMP280;55436;39.536;2.718;2022-07-12T09:28:14;101575.38;;;34.86
68454;BMP280;55436;39.536;2.718;2022-07-12T09:30:50;101579.22;;;34.83
68454;BMP280;55436;39.536;2.718;2022-07-12T09:33:18;101579.91;;;34.89
68454;BMP280;55436;39.536;2.718;2022-07-12T09:36:05;101578.50;;;34.77
68454;BMP280;55436;39.536;2.718;2022-07-12T09:38:54;101577.69;;;35.35
68454;BMP280;55436;39.536;2.718;2022-07-12T09:41:25;101583.50;;;35.61
68454;BMP280;55436;39.536;2.718;2022-07-12T09:43:52;101579.91;;;35.42
68454;BMP280;55436;39.536;2.718;2022-07-12T09:46:18;101587.06;;;35.38
68454;BMP280;55436;39.536;2.718;2022-07-12T09:48:45;101590.06;;;35.16
68454;BMP280;55436;39.536;2.718;2022-07-12T09:51:14;101582.25;;;35.14
68454;BMP280;55436;39.536;2.718;2022-07-12T09:53:45;101593.31;;;35.44
68454;BMP280;55436;39.536;2.718;2022-07-12T09:56:12;101586.34;;;35.74
68454;BMP280;55436;39.536;2.718;2022-07-12T09:58:54;101589.16;;;36.29
68454;BMP280;55436;39.536;2.718;2022-07-12T10:01:21;101595.34;;;36.40
68454;BMP280;55436;39.536;2.718;2022-07-12T10:03:53;101594.25;;;35.94
68454;BMP280;55436;39.536;2.718;2022-07-12T10:08:51;101602.38;;;36.28
68454;BMP280;55436;39.536;2.718;2022-07-12T10:11:18;101609.91;;;36.52
68454;BMP280;55436;39.536;2.718;2022-07-12T10:13:44;101609.66;;;36.19
68454;BMP280;55436;39.536;2.718;2022-07-12T10:16:10;101612.53;;;35.95
68454;BMP280;55436;39.536;2.718;2022-07-12T10:18:37;101617.59;;;35.36
68454;BMP280;55436;39.536;2.718;2022-07-12T10:21:17;101606.72;;;35.51
68454;BMP280;55436;39.536;2.718;2022-07-12T10:23:44;101609.66;;;35.40
68454;BMP280;55436;39.536;2.718;2022-07-12T10:29:03;101615.69;;;34.61
68454;BMP280;55436;39.536;2.718;2022-07-12T10:31:33;101621.81;;;34.54
68454;BMP280;55436;39.536;2.718;2022-07-12T10:34:10;101621.81;;;34.54
68454;BMP280;55436;39.536;2.718;2022-07-12T10:37:08;101625.66;;;34.00
68454;BMP280;55436;39.536;2.718;2022-07-12T10:39:34;101625.81;;;33.29
68454;BMP280;55436;39.536;2.718;2022-07-12T10:44:36;101624.34;;;34.12
68454;BMP280;55436;39.536;2.718;2022-07-12T10:47:03;101631.56;;;34.32
68454;BMP280;55436;39.536;2.718;2022-07-12T10:49:30;101622.97;;;33.62
68454;BMP280;55436;39.536;2.718;2022-07-12T10:54:38;101622.19;;;34.35
68454;BMP280;55436;39.536;2.718;2022-07-12T10:57:04;101625.53;;;34.28
68454;BMP280;55436;39.536;2.718;2022-07-12T10:59:30;101624.38;;;34.01
68454;BMP280;55436;39.536;2.718;2022-07-12T11:01:58;101627.22;;;33.90
68454;BMP280;55436;39.536;2.718;2022-07-12T11:04:26;101627.44;;;34.03
68454;BMP280;55436;39.536;2.718;2022-07-12T11:06:54;101623.41;;;33.93
68454;BMP280;55436;39.536;2.718;2022-07-12T11:09:23;101628.53;;;33.73
68454;BMP280;55436;39.536;2.718;2022-07-12T11:11:51;101619.94;;;33.66
68454;BMP280;55436;39.536;2.718;2022-07-12T11:14:24;101628.31;;;34.28
68454;BMP280;55436;39.536;2.718;2022-07-12T11:16:51;101634.78;;;34.46
68454;BMP280;55436;39.536;2.718;2022-07-12T11:19:24;101625.66;;;34.06
68454;BMP280;55436;39.536;2.718;2022-07-12T11:21:51;101625.66;;;34.06
68454;BMP280;55436;39.536;2.718;2022-07-12T11:24:28;101637.47;;;33.33
68454;BMP280;55436;39.536;2.718;2022-07-12T11:26:53;101633.16;;;33.49
68454;BMP280;55436;39.536;2.718;2022-07-12T11:29:20;101634.22;;;34.13
68454;BMP280;55436;39.536;2.718;2022-07-12T11:31:46;101634.22;;;34.13
68454;BMP280;55436;39.536;2.718;2022-07-12T11:34:23;101635.81;;;33.98
68454;BMP280;55436;39.536;2.718;2022-07-12T11:36:56;101635.81;;;33.98
68454;BMP280;55436;39.536;2.718;2022-07-12T11:39:40;101630.88;;;33.31
68454;BMP280;55436;39.536;2.718;2022-07-12T11:42:07;101630.88;;;33.31
68454;BMP280;55436;39.536;2.718;2022-07-12T11:44:50;101632.84;;;33.74
68454;BMP280;55436;39.536;2.718;2022-07-12T11:47:18;101632.19;;;33.35
68454;BMP280;55436;39.536;2.718;2022-07-12T11:49:48;101641.28;;;33.19
68454;BMP280;55436;39.536;2.718;2022-07-12T11:52:15;101641.28;;;33.19
68454;BMP280;55436;39.536;2.718;2022-07-12T11:54:43;101631.16;;;32.15
68454;BMP280;55436;39.536;2.718;2022-07-12T11:57:10;101631.16;;;32.15
68454;BMP280;55436;39.536;2.718;2022-07-12T11:59:36;101634.44;;;32.08
68454;BMP280;55436;39.536;2.718;2022-07-12T12:02:05;101640.31;;;32.21
68454;BMP280;55436;39.536;2.718;2022-07-12T12:05:03;101649.03;;;32.44
68454;BMP280;55436;39.536;2.718;2022-07-12T12:07:28;101638.94;;;32.69
68454;BMP280;55436;39.536;2.718;2022-07-12T12:10:17;101639.16;;;32.49
68454;BMP280;55436;39.536;2.718;2022-07-12T12:12:45;101650.03;;;31.94
68454;BMP280;55436;39.536;2.718;2022-07-12T12:15:13;101644.34;;;31.72
68454;BMP280;55436;39.536;2.718;2022-07-12T12:17:52;101644.34;;;31.72
68454;BMP280;55436;39.536;2.718;2022-07-12T12:20:21;101632.00;;;32.26
68454;BMP280;55436;39.536;2.718;2022-07-12T12:22:48;101641.22;;;32.70
68454;BMP280;55436;39.536;2.718;2022-07-12T12:25:15;101641.22;;;32.70
68454;BMP280;55436;39.536;2.718;2022-07-12T12:27:49;101638.63;;;31.51
68454;BMP280;55436;39.536;2.718;2022-07-12T12:30:15;101639.13;;;31.85
68454;BMP280;55436;39.536;2.718;2022-07-12T12:32:54;101644.09;;;32.18
68454;BMP280;55436;39.536;2.718;2022-07-12T12:37:57;101637.00;;;31.70
68454;BMP280;55436;39.536;2.718;2022-07-12T12:40:25;101626.41;;;31.73
68454;BMP280;55436;39.536;2.718;2022-07-12T12:42:52;101625.63;;;31.37
68454;BMP280;55436;39.536;2.718;2022-07-12T12:45:23;101630.75;;;31.44
68454;BMP280;55436;39.536;2.718;2022-07-12T12:50:44;101623.75;;;31.54
68454;BMP280;55436;39.536;2.718;2022-07-12T12:53:37;101624.88;;;31.05
68454;BMP280;55436;39.536;2.718;2022-07-12T12:56:14;101620.22;;;30.72
68454;BMP280;55436;39.536;2.718;2022-07-12T12:58:40;101622.66;;;30.44
68454;BMP280;55436;39.536;2.718;2022-07-12T13:01:07;101615.72;;;30.54
68454;BMP280;55436;39.536;2.718;2022-07-12T13:03:33;101618.72;;;30.31
68454;BMP280;55436;39.536;2.718;2022-07-12T13:05:58;101606.69;;;30.59
68454;BMP280;55436;39.536;2.718;2022-07-12T13:08:25;101613.84;;;30.91
68454;BMP280;55436;39.536;2.718;2022-07-12T13:10:51;101606.19;;;30.35
68454;BMP280;55436;39.536;2.718;2022-07-12T13:13:37;101615.00;;;30.34
68454;BMP280;55436;39.536;2.718;2022-07-12T13:16:03;101606.00;;;30.44
68454;BMP280;55436;39.536;2.718;2022-07-12T13:18:29;101606.00;;;30.44
68454;BMP280;55436;39.536;2.718;2022-07-12T13:20:54;101611.59;;;30.25
68454;BMP280;55436;39.536;2.718;2022-07-12T13:23:20;101610.13;;;30.29
68454;BMP280;55436;39.536;2.718;2022-07-12T13:25:45;101588.69;;;29.90
68454;BMP280;55436;39.536;2.718;2022-07-12T13:28:11;101588.69;;;29.90
68454;BMP280;55436;39.536;2.718;2022-07-12T13:30:37;101599.34;;;30.11
68454;BMP280;55436;39.536;2.718;2022-07-12T13:33:03;101600.59;;;30.75
68454;BMP280;55436;39.536;2.718;2022-07-12T13:35:28;101593.75;;;30.31
68454;BMP280;55436;39.536;2.718;2022-07-12T13:37:55;101593.78;;;30.11
68454;BMP280;55436;39.536;2.718;2022-07-12T13:40:22;101593.78;;;30.11
68454;BMP280;55436;39.536;2.718;2022-07-12T13:42:50;101576.94;;;30.15
68454;BMP280;55436;39.536;2.718;2022-07-12T13:45:20;101583.47;;;30.82
68454;BMP280;55436;39.536;2.718;2022-07-12T13:47:46;101588.88;;;31.16
68454;BMP280;55436;39.536;2.718;2022-07-12T13:50:15;101601.38;;;31.06
68454;BMP280;55436;39.536;2.718;2022-07-12T13:52:42;101581.78;;;31.15
68454;BMP280;55436;39.536;2.718;2022-07-12T13:55:09;101581.78;;;31.15
68454;BMP280;55436;39.536;2.718;2022-07-12T13:57:36;101592.78;;;31.30
68454;BMP280;55436;39.536;2.718;2022-07-12T14:00:08;101591.63;;;31.47
68454;BMP280;55436;39.536;2.718;2022-07-12T14:02:35;101591.50;;;31.31
68454;BMP280;55436;39.536;2.718;2022-07-12T14:05:03;101586.66;;;31.62
68454;BMP280;55436;39.536;2.718;2022-07-12T14:07:29;101599.56;;;32.12
68454;BMP280;55436;39.536;2.718;2022-07-12T14:09:54;101592.00;;;32.13
68454;BMP280;55436;39.536;2.718;2022-07-12T14:12:20;101593.44;;;31.97
68454;BMP280;55436;39.536;2.718;2022-07-12T14:14:46;101593.16;;;31.90
68454;BMP280;55436;39.536;2.718;2022-07-12T14:17:29;101593.16;;;31.90
68454;BMP280;55436;39.536;2.718;2022-07-12T14:19:55;101588.16;;;32.05